Aérodrome :
LOGIN :

S'inscrire | Disclaimer

   EN    FR    IT 

 










Légende :    VFR   VFR Marginal   IFR   IFR Intensif   IFR Très Intensif
Visi : 
Plafond : 
>= 8 km
>= 3000ft
5 à 8 km
1000 à 3000 ft
1500m à 5 km
500 à 1000 ft
800 à 1500m
200 à 500 ft
< 800m
< 200 ft
Symboles :   Orages  Brouillard  Fortes neiges  Fortes précipitations  Vent > 20 kt
SIGMETs :   Divers  Orages  Givrage  Turbulence  Onde Orograph.  Cendres Volcan.







- Altitude de l'aérodrome : 458 ft
- Voir les cartes d'approche


LFSI - St-Dizier

DERNIER METAR :
  • 211200Z AUTO 32010KT 290V350 9999 FEW023 OVC033 20/13 Q1021

METARs EXPIRÉS :
  • 211130Z AUTO 34008KT 310V010 9999 BKN022 BKN029 OVC034 19/14 Q1021
  • 211100Z AUTO 34010KT 9999 BKN019 OVC032 19/14 Q1021
  • 211030Z AUTO 35013KT 9999 FEW013 BKN019 BKN041 20/15 Q1021
  • 211000Z AUTO 34013KT 9999 BKN014 BKN020 OVC034 18/15 Q1021
  • 210930Z AUTO 34013KT 9999 SCT016 BKN026 OVC046 19/15 Q1020

TAF TAF LFSI
Valide du 21 à 09h jusqu'au 22 à 09h UTC


210800Z 2109/2209 33006KT 9999 BKN035
Pas de NOTAMs connus pour ce terrain.



MET'MAP, la Météo Aéronautique d'un coup d'oeil ! - Copyright ORBIFLY Décembre 2007 - Disclaimer

ORBIFLY MET'MAP TEAM :

Programmation & Développement : Alexandra Zaïnal
Conception & Développement : Baudouin d'Aumeries
Co-Programmation & Développement : Marc-Olivier Méhu
Soutien technique & logistique : Manuel Goepfert

Contact : metmap@orbifly.com




SOURCES & CREDITS :

   NOAA